Aviation Digital Data Service (ADDS)

Output produced by METARs form (1945 UTC 23 January 2019)
found at http://www.aviationweather.gov/metar/data/
 
METAR text: EYVI 231920Z VRB01KT 5000 BR NSC M11/M13 Q1013 R19/1///95 NOSIG
Conditions at: EYVI (VILNIUS INTL , LT) observed 1920 UTC 23 January 2019
Temperature: -11.0°C (12°F)
Dewpoint: -13.0°C ( 9°F) [RH = 85%]
Pressure (altimeter): 29.91 inches Hg (1013.0 mb)
Winds: variable direction winds at 1 MPH (1 knots; 0.5 m/s)
Visibility: 3 miles ( 5 km)
Ceiling: at least 12,000 feet AGL
Clouds: sky clear below 12,000 feet AGL
Weather: BR  (mist)

METAR text: EYVI 231909Z VRB01KT 5000 BR NSC M10/M12 Q1013 R19/1///95 NOSIG
Conditions at: EYVI (VILNIUS INTL , LT) observed 1909 UTC 23 January 2019
Temperature: -10.0°C (14°F)
Dewpoint: -12.0°C (10°F) [RH = 85%]
Pressure (altimeter): 29.91 inches Hg (1013.0 mb)
Winds: variable direction winds at 1 MPH (1 knots; 0.5 m/s)
Visibility: 3 miles ( 5 km)
Ceiling: at least 12,000 feet AGL
Clouds: sky clear below 12,000 feet AGL
Weather: BR  (mist)

METAR text: EYVI 231850Z VRB01KT 6000 NSC M10/M12 Q1013 R19/1///95 NOSIG
Conditions at: EYVI (VILNIUS INTL , LT) observed 1850 UTC 23 January 2019
Temperature: -10.0°C (14°F)
Dewpoint: -12.0°C (10°F) [RH = 85%]
Pressure (altimeter): 29.91 inches Hg (1013.0 mb)
Winds: variable direction winds at 1 MPH (1 knots; 0.5 m/s)
Visibility: 4 miles ( 6 km)
Ceiling: at least 12,000 feet AGL
Clouds: sky clear below 12,000 feet AGL
Weather: no significant weather observed at this time

METAR text: EYVI 231820Z 06002KT 6000 NSC M10/M12 Q1013 R19/1///95 NOSIG
Conditions at: EYVI (VILNIUS INTL , LT) observed 1820 UTC 23 January 2019
Temperature: -10.0°C (14°F)
Dewpoint: -12.0°C (10°F) [RH = 85%]
Pressure (altimeter): 29.91 inches Hg (1013.0 mb)
Winds: from the ENE (60 degrees) at 2 MPH (2 knots; 1.0 m/s)
Visibility: 4 miles ( 6 km)
Ceiling: at least 12,000 feet AGL
Clouds: sky clear below 12,000 feet AGL
Weather: no significant weather observed at this time

METAR text: EYVI 231750Z 05003KT 020V080 6000 NSC M09/M11 Q1013 R19/1///95 NOSIG
Conditions at: EYVI (VILNIUS INTL , LT) observed 1750 UTC 23 January 2019
Temperature: -9.0°C (16°F)
Dewpoint: -11.0°C (12°F) [RH = 85%]
Pressure (altimeter): 29.91 inches Hg (1013.0 mb)
Winds: from the NE (50 degrees) at 3 MPH (3 knots; 1.5 m/s)
Visibility: 4 miles ( 6 km)
Ceiling: at least 12,000 feet AGL
Clouds: sky clear below 12,000 feet AGL
Weather: no significant weather observed at this time

METAR text: EYVI 231732Z 05003KT 5000 BR NSC M09/M11 Q1012 R19/1///95 NOSIG
Conditions at: EYVI (VILNIUS INTL , LT) observed 1732 UTC 23 January 2019
Temperature: -9.0°C (16°F)
Dewpoint: -11.0°C (12°F) [RH = 85%]
Pressure (altimeter): 29.88 inches Hg (1012.0 mb)
Winds: from the NE (50 degrees) at 3 MPH (3 knots; 1.5 m/s)
Visibility: 3 miles ( 5 km)
Ceiling: at least 12,000 feet AGL
Clouds: sky clear below 12,000 feet AGL
Weather: BR  (mist)

METAR text: EYVI 231720Z 03002KT 6000 NSC M09/M11 Q1012 R19/1///95 NOSIG
Conditions at: EYVI (VILNIUS INTL , LT) observed 1720 UTC 23 January 2019
Temperature: -9.0°C (16°F)
Dewpoint: -11.0°C (12°F) [RH = 85%]
Pressure (altimeter): 29.88 inches Hg (1012.0 mb)
Winds: from the NNE (30 degrees) at 2 MPH (2 knots; 1.0 m/s)
Visibility: 4 miles ( 6 km)
Ceiling: at least 12,000 feet AGL
Clouds: sky clear below 12,000 feet AGL
Weather: no significant weather observed at this time

METAR text: EYVI 231650Z VRB01KT 4400 BR NSC M08/M11 Q1012 R19/1///95 NOSIG
Conditions at: EYVI (VILNIUS INTL , LT) observed 1650 UTC 23 January 2019
Temperature: -8.0°C (18°F)
Dewpoint: -11.0°C (12°F) [RH = 79%]
Pressure (altimeter): 29.88 inches Hg (1012.0 mb)
Winds: variable direction winds at 1 MPH (1 knots; 0.5 m/s)
Visibility: 2.73 miles (4.39 km)
Ceiling: at least 12,000 feet AGL
Clouds: sky clear below 12,000 feet AGL
Weather: BR  (mist)

METAR text: EYVI 231638Z VRB01KT 9000 NSC M08/M11 Q1012 R19/1///95 NOSIG
Conditions at: EYVI (VILNIUS INTL , LT) observed 1638 UTC 23 January 2019
Temperature: -8.0°C (18°F)
Dewpoint: -11.0°C (12°F) [RH = 79%]
Pressure (altimeter): 29.88 inches Hg (1012.0 mb)
Winds: variable direction winds at 1 MPH (1 knots; 0.5 m/s)
Visibility: 6 miles ( 9 km)
Ceiling: at least 12,000 feet AGL
Clouds: sky clear below 12,000 feet AGL
Weather: no significant weather observed at this time

METAR text: EYVI 231620Z 06006KT CAVOK M08/M11 Q1012 R19/1///95 NOSIG
Conditions at: EYVI (VILNIUS INTL , LT) observed 1620 UTC 23 January 2019
Temperature: -8.0°C (18°F)
Dewpoint: -11.0°C (12°F) [RH = 79%]
Pressure (altimeter): 29.88 inches Hg (1012.0 mb)
Winds: from the ENE (60 degrees) at 7 MPH (6 knots; 3.1 m/s)
Visibility: 6 or more miles (10+ km)
Ceiling: ceiling and visibility are OK
Clouds: unknown
Weather: no significant weather observed at this time

METAR text: EYVI 231550Z 07004KT CAVOK M08/M11 Q1012 R19/1///95 NOSIG
Conditions at: EYVI (VILNIUS INTL , LT) observed 1550 UTC 23 January 2019
Temperature: -8.0°C (18°F)
Dewpoint: -11.0°C (12°F) [RH = 79%]
Pressure (altimeter): 29.88 inches Hg (1012.0 mb)
Winds: from the ENE (70 degrees) at 5 MPH (4 knots; 2.1 m/s)
Visibility: 6 or more miles (10+ km)
Ceiling: ceiling and visibility are OK
Clouds: unknown
Weather: no significant weather observed at this time

METAR text: EYVI 231520Z 08004KT CAVOK M08/M11 Q1012 R19/1///95 NOSIG
Conditions at: EYVI (VILNIUS INTL , LT) observed 1520 UTC 23 January 2019
Temperature: -8.0°C (18°F)
Dewpoint: -11.0°C (12°F) [RH = 79%]
Pressure (altimeter): 29.88 inches Hg (1012.0 mb)
Winds: from the E (80 degrees) at 5 MPH (4 knots; 2.1 m/s)
Visibility: 6 or more miles (10+ km)
Ceiling: ceiling and visibility are OK
Clouds: unknown
Weather: no significant weather observed at this time

METAR text: EYVI 231450Z 07003KT 8000 SCT040 M07/M11 Q1012 R19/1///95 NOSIG
Conditions at: EYVI (VILNIUS INTL , LT) observed 1450 UTC 23 January 2019
Temperature: -7.0°C (19°F)
Dewpoint: -11.0°C (12°F) [RH = 73%]
Pressure (altimeter): 29.88 inches Hg (1012.0 mb)
Winds: from the ENE (70 degrees) at 3 MPH (3 knots; 1.5 m/s)
Visibility: 5 miles ( 8 km)
Ceiling: at least 12,000 feet AGL
Clouds: scattered clouds at 4000 feet AGL
Weather: no significant weather observed at this time

METAR text: EYVI 231420Z 10004KT 9999 SCT034 M06/M11 Q1012 R19/1///95 NOSIG
Conditions at: EYVI (VILNIUS INTL , LT) observed 1420 UTC 23 January 2019
Temperature: -6.0°C (21°F)
Dewpoint: -11.0°C (12°F) [RH = 68%]
Pressure (altimeter): 29.88 inches Hg (1012.0 mb)
Winds: from the E (100 degrees) at 5 MPH (4 knots; 2.1 m/s)
Visibility: 6 or more miles (10+ km)
Ceiling: at least 12,000 feet AGL
Clouds: scattered clouds at 3400 feet AGL
Weather: no significant weather observed at this time

METAR text: EYVI 231350Z 08005KT 9999 BKN035 M06/M10 Q1012 R19/1///95 NOSIG
Conditions at: EYVI (VILNIUS INTL , LT) observed 1350 UTC 23 January 2019
Temperature: -6.0°C (21°F)
Dewpoint: -10.0°C (14°F) [RH = 73%]
Pressure (altimeter): 29.88 inches Hg (1012.0 mb)
Winds: from the E (80 degrees) at 6 MPH (5 knots; 2.6 m/s)
Visibility: 6 or more miles (10+ km)
Ceiling: 3500 feet AGL
Clouds: broken clouds at 3500 feet AGL
Weather: no significant weather observed at this time

METAR text: EYVI 231320Z 11005KT 9999 BKN030 M05/M11 Q1012 R19/1///95 NOSIG
Conditions at: EYVI (VILNIUS INTL , LT) observed 1320 UTC 23 January 2019
Temperature: -5.0°C (23°F)
Dewpoint: -11.0°C (12°F) [RH = 63%]
Pressure (altimeter): 29.88 inches Hg (1012.0 mb)
Winds: from the ESE (110 degrees) at 6 MPH (5 knots; 2.6 m/s)
Visibility: 6 or more miles (10+ km)
Ceiling: 3000 feet AGL
Clouds: broken clouds at 3000 feet AGL
Weather: no significant weather observed at this time

METAR text: EYVI 231250Z 11007KT CAVOK M05/M11 Q1012 R19/1///95 NOSIG
Conditions at: EYVI (VILNIUS INTL , LT) observed 1250 UTC 23 January 2019
Temperature: -5.0°C (23°F)
Dewpoint: -11.0°C (12°F) [RH = 63%]
Pressure (altimeter): 29.88 inches Hg (1012.0 mb)
Winds: from the ESE (110 degrees) at 8 MPH (7 knots; 3.6 m/s)
Visibility: 6 or more miles (10+ km)
Ceiling: ceiling and visibility are OK
Clouds: unknown
Weather: no significant weather observed at this time

METAR text: EYVI 231220Z 13005KT CAVOK M05/M11 Q1013 R19/1///95 NOSIG
Conditions at: EYVI (VILNIUS INTL , LT) observed 1220 UTC 23 January 2019
Temperature: -5.0°C (23°F)
Dewpoint: -11.0°C (12°F) [RH = 63%]
Pressure (altimeter): 29.91 inches Hg (1013.0 mb)
Winds: from the SE (130 degrees) at 6 MPH (5 knots; 2.6 m/s)
Visibility: 6 or more miles (10+ km)
Ceiling: ceiling and visibility are OK
Clouds: unknown
Weather: no significant weather observed at this time

METAR text: EYVI 231208Z 13006KT CAVOK M05/M11 Q1013 R19/1///95 NOSIG
Conditions at: EYVI (VILNIUS INTL , LT) observed 1208 UTC 23 January 2019
Temperature: -5.0°C (23°F)
Dewpoint: -11.0°C (12°F) [RH = 63%]
Pressure (altimeter): 29.91 inches Hg (1013.0 mb)
Winds: from the SE (130 degrees) at 7 MPH (6 knots; 3.1 m/s)
Visibility: 6 or more miles (10+ km)
Ceiling: ceiling and visibility are OK
Clouds: unknown
Weather: no significant weather observed at this time

METAR text: EYVI 231152Z 12007KT CAVOK M05/M11 Q1013 R19/1///95 NOSIG
Conditions at: EYVI (VILNIUS INTL , LT) observed 1152 UTC 23 January 2019
Temperature: -5.0°C (23°F)
Dewpoint: -11.0°C (12°F) [RH = 63%]
Pressure (altimeter): 29.91 inches Hg (1013.0 mb)
Winds: from the ESE (120 degrees) at 8 MPH (7 knots; 3.6 m/s)
Visibility: 6 or more miles (10+ km)
Ceiling: ceiling and visibility are OK
Clouds: unknown
Weather: no significant weather observed at this time

METAR text: EYVI 231150Z 12007KT CAVOK M05/M11 Q1013 R19/1///95 NOSIG
Conditions at: EYVI (VILNIUS INTL , LT) observed 1150 UTC 23 January 2019
Temperature: -5.0°C (23°F)
Dewpoint: -11.0°C (12°F) [RH = 63%]
Pressure (altimeter): 29.91 inches Hg (1013.0 mb)
Winds: from the ESE (120 degrees) at 8 MPH (7 knots; 3.6 m/s)
Visibility: 6 or more miles (10+ km)
Ceiling: ceiling and visibility are OK
Clouds: unknown
Weather: no significant weather observed at this time

METAR text: EYVI 231120Z 14005KT 110V180 CAVOK M05/M09 Q1013 R19/1///95 NOSIG
Conditions at: EYVI (VILNIUS INTL , LT) observed 1120 UTC 23 January 2019
Temperature: -5.0°C (23°F)
Dewpoint: -9.0°C (16°F) [RH = 73%]
Pressure (altimeter): 29.91 inches Hg (1013.0 mb)
Winds: from the SE (140 degrees) at 6 MPH (5 knots; 2.6 m/s)
Visibility: 6 or more miles (10+ km)
Ceiling: ceiling and visibility are OK
Clouds: unknown
Weather: no significant weather observed at this time

METAR text: EYVI 231050Z 15004KT 110V170 CAVOK M05/M09 Q1013 R19/1///95 NOSIG
Conditions at: EYVI (VILNIUS INTL , LT) observed 1050 UTC 23 January 2019
Temperature: -5.0°C (23°F)
Dewpoint: -9.0°C (16°F) [RH = 73%]
Pressure (altimeter): 29.91 inches Hg (1013.0 mb)
Winds: from the SSE (150 degrees) at 5 MPH (4 knots; 2.1 m/s)
Visibility: 6 or more miles (10+ km)
Ceiling: ceiling and visibility are OK
Clouds: unknown
Weather: no significant weather observed at this time

METAR text: EYVI 231020Z 15006KT CAVOK M05/M09 Q1013 R19/1///95 NOSIG
Conditions at: EYVI (VILNIUS INTL , LT) observed 1020 UTC 23 January 2019
Temperature: -5.0°C (23°F)
Dewpoint: -9.0°C (16°F) [RH = 73%]
Pressure (altimeter): 29.91 inches Hg (1013.0 mb)
Winds: from the SSE (150 degrees) at 7 MPH (6 knots; 3.1 m/s)
Visibility: 6 or more miles (10+ km)
Ceiling: ceiling and visibility are OK
Clouds: unknown
Weather: no significant weather observed at this time

METAR text: EYVI 230950Z 16007KT 9999 FEW011 M05/M09 Q1013 R19/1///95 NOSIG
Conditions at: EYVI (VILNIUS INTL , LT) observed 0950 UTC 23 January 2019
Temperature: -5.0°C (23°F)
Dewpoint: -9.0°C (16°F) [RH = 73%]
Pressure (altimeter): 29.91 inches Hg (1013.0 mb)
Winds: from the SSE (160 degrees) at 8 MPH (7 knots; 3.6 m/s)
Visibility: 6 or more miles (10+ km)
Ceiling: at least 12,000 feet AGL
Clouds: few clouds at 1100 feet AGL
Weather: no significant weather observed at this time

METAR text: EYVI 230920Z 15008KT 9999 BKN010 BKN072 M05/M08 Q1013 R19/1///95 NOSIG
Conditions at: EYVI (VILNIUS INTL , LT) observed 0920 UTC 23 January 2019
Temperature: -5.0°C (23°F)
Dewpoint: -8.0°C (18°F) [RH = 79%]
Pressure (altimeter): 29.91 inches Hg (1013.0 mb)
Winds: from the SSE (150 degrees) at 9 MPH (8 knots; 4.1 m/s)
Visibility: 6 or more miles (10+ km)
Ceiling: 1000 feet AGL
Clouds: broken clouds at 1000 feet AGL
broken clouds at 7200 feet AGL
Weather: no significant weather observed at this time

METAR text: EYVI 230850Z 16007KT 8000 BKN009 BKN074 M05/M07 Q1014 R19/1///95 NOSIG
Conditions at: EYVI (VILNIUS INTL , LT) observed 0850 UTC 23 January 2019
Temperature: -5.0°C (23°F)
Dewpoint: -7.0°C (19°F) [RH = 86%]
Pressure (altimeter): 29.94 inches Hg (1014.0 mb)
Winds: from the SSE (160 degrees) at 8 MPH (7 knots; 3.6 m/s)
Visibility: 5 miles ( 8 km)
Ceiling: 900 feet AGL
Clouds: broken clouds at 900 feet AGL
broken clouds at 7400 feet AGL
Weather: no significant weather observed at this time

METAR text: EYVI 230820Z 15004KT 8000 FEW007 BKN009 M05/M07 Q1014 R19/1///95 NOSIG
Conditions at: EYVI (VILNIUS INTL , LT) observed 0820 UTC 23 January 2019
Temperature: -5.0°C (23°F)
Dewpoint: -7.0°C (19°F) [RH = 86%]
Pressure (altimeter): 29.94 inches Hg (1014.0 mb)
Winds: from the SSE (150 degrees) at 5 MPH (4 knots; 2.1 m/s)
Visibility: 5 miles ( 8 km)
Ceiling: 900 feet AGL
Clouds: few clouds at 700 feet AGL
broken clouds at 900 feet AGL
Weather: no significant weather observed at this time

METAR text: EYVI 230750Z 14005KT 9000 BKN009 M05/M07 Q1014 R19/1///95 NOSIG
Conditions at: EYVI (VILNIUS INTL , LT) observed 0750 UTC 23 January 2019
Temperature: -5.0°C (23°F)
Dewpoint: -7.0°C (19°F) [RH = 86%]
Pressure (altimeter): 29.94 inches Hg (1014.0 mb)
Winds: from the SE (140 degrees) at 6 MPH (5 knots; 2.6 m/s)
Visibility: 6 miles ( 9 km)
Ceiling: 900 feet AGL
Clouds: broken clouds at 900 feet AGL
Weather: no significant weather observed at this time

METAR text: EYVI 230720Z 16006KT 9999 OVC010 M05/M07 Q1013 R19/1///95 NOSIG
Conditions at: EYVI (VILNIUS INTL , LT) observed 0720 UTC 23 January 2019
Temperature: -5.0°C (23°F)
Dewpoint: -7.0°C (19°F) [RH = 86%]
Pressure (altimeter): 29.91 inches Hg (1013.0 mb)
Winds: from the SSE (160 degrees) at 7 MPH (6 knots; 3.1 m/s)
Visibility: 6 or more miles (10+ km)
Ceiling: 1000 feet AGL
Clouds: overcast cloud deck at 1000 feet AGL
Weather: no significant weather observed at this time

METAR text: EYVI 230650Z 14004KT 9999 OVC012 M05/M06 Q1013 R19/1///95 NOSIG
Conditions at: EYVI (VILNIUS INTL , LT) observed 0650 UTC 23 January 2019
Temperature: -5.0°C (23°F)
Dewpoint: -6.0°C (21°F) [RH = 93%]
Pressure (altimeter): 29.91 inches Hg (1013.0 mb)
Winds: from the SE (140 degrees) at 5 MPH (4 knots; 2.1 m/s)
Visibility: 6 or more miles (10+ km)
Ceiling: 1200 feet AGL
Clouds: overcast cloud deck at 1200 feet AGL
Weather: no significant weather observed at this time

METAR text: EYVI 230620Z 14003KT 9999 OVC015 M05/M07 Q1013 R19/1///95 NOSIG
Conditions at: EYVI (VILNIUS INTL , LT) observed 0620 UTC 23 January 2019
Temperature: -5.0°C (23°F)
Dewpoint: -7.0°C (19°F) [RH = 86%]
Pressure (altimeter): 29.91 inches Hg (1013.0 mb)
Winds: from the SE (140 degrees) at 3 MPH (3 knots; 1.5 m/s)
Visibility: 6 or more miles (10+ km)
Ceiling: 1500 feet AGL
Clouds: overcast cloud deck at 1500 feet AGL
Weather: no significant weather observed at this time

METAR text: EYVI 230550Z 18003KT 9999 OVC011 M05/M07 Q1013 R19/1///95 NOSIG
Conditions at: EYVI (VILNIUS INTL , LT) observed 0550 UTC 23 January 2019
Temperature: -5.0°C (23°F)
Dewpoint: -7.0°C (19°F) [RH = 86%]
Pressure (altimeter): 29.91 inches Hg (1013.0 mb)
Winds: from the S (180 degrees) at 3 MPH (3 knots; 1.5 m/s)
Visibility: 6 or more miles (10+ km)
Ceiling: 1100 feet AGL
Clouds: overcast cloud deck at 1100 feet AGL
Weather: no significant weather observed at this time

METAR text: EYVI 230520Z 16005KT 9000 OVC009 M05/M06 Q1013 R19/1///95 NOSIG
Conditions at: EYVI (VILNIUS INTL , LT) observed 0520 UTC 23 January 2019
Temperature: -5.0°C (23°F)
Dewpoint: -6.0°C (21°F) [RH = 93%]
Pressure (altimeter): 29.91 inches Hg (1013.0 mb)
Winds: from the SSE (160 degrees) at 6 MPH (5 knots; 2.6 m/s)
Visibility: 6 miles ( 9 km)
Ceiling: 900 feet AGL
Clouds: overcast cloud deck at 900 feet AGL
Weather: no significant weather observed at this time

METAR text: EYVI 230450Z 16004KT 9000 OVC007 M05/M06 Q1013 R19/1///95 NOSIG
Conditions at: EYVI (VILNIUS INTL , LT) observed 0450 UTC 23 January 2019
Temperature: -5.0°C (23°F)
Dewpoint: -6.0°C (21°F) [RH = 93%]
Pressure (altimeter): 29.91 inches Hg (1013.0 mb)
Winds: from the SSE (160 degrees) at 5 MPH (4 knots; 2.1 m/s)
Visibility: 6 miles ( 9 km)
Ceiling: 700 feet AGL
Clouds: overcast cloud deck at 700 feet AGL
Weather: no significant weather observed at this time

METAR text: EYVI 230420Z 19004KT 9000 OVC007 M05/M07 Q1013 R19/1///95 NOSIG
Conditions at: EYVI (VILNIUS INTL , LT) observed 0420 UTC 23 January 2019
Temperature: -5.0°C (23°F)
Dewpoint: -7.0°C (19°F) [RH = 86%]
Pressure (altimeter): 29.91 inches Hg (1013.0 mb)
Winds: from the S (190 degrees) at 5 MPH (4 knots; 2.1 m/s)
Visibility: 6 miles ( 9 km)
Ceiling: 700 feet AGL
Clouds: overcast cloud deck at 700 feet AGL
Weather: no significant weather observed at this time

METAR text: EYVI 230350Z 20005KT 9999 OVC009 M05/M07 Q1013 R19/1///95 NOSIG
Conditions at: EYVI (VILNIUS INTL , LT) observed 0350 UTC 23 January 2019
Temperature: -5.0°C (23°F)
Dewpoint: -7.0°C (19°F) [RH = 86%]
Pressure (altimeter): 29.91 inches Hg (1013.0 mb)
Winds: from the SSW (200 degrees) at 6 MPH (5 knots; 2.6 m/s)
Visibility: 6 or more miles (10+ km)
Ceiling: 900 feet AGL
Clouds: overcast cloud deck at 900 feet AGL
Weather: no significant weather observed at this time

METAR text: EYVI 230320Z 18005KT 9999 OVC007 M05/M07 Q1013 R19/1///95 NOSIG
Conditions at: EYVI (VILNIUS INTL , LT) observed 0320 UTC 23 January 2019
Temperature: -5.0°C (23°F)
Dewpoint: -7.0°C (19°F) [RH = 86%]
Pressure (altimeter): 29.91 inches Hg (1013.0 mb)
Winds: from the S (180 degrees) at 6 MPH (5 knots; 2.6 m/s)
Visibility: 6 or more miles (10+ km)
Ceiling: 700 feet AGL
Clouds: overcast cloud deck at 700 feet AGL
Weather: no significant weather observed at this time

METAR text: EYVI 230250Z 17007KT 9999 OVC007 M05/M07 Q1014 R19/1///95 NOSIG
Conditions at: EYVI (VILNIUS INTL , LT) observed 0250 UTC 23 January 2019
Temperature: -5.0°C (23°F)
Dewpoint: -7.0°C (19°F) [RH = 86%]
Pressure (altimeter): 29.94 inches Hg (1014.0 mb)
Winds: from the S (170 degrees) at 8 MPH (7 knots; 3.6 m/s)
Visibility: 6 or more miles (10+ km)
Ceiling: 700 feet AGL
Clouds: overcast cloud deck at 700 feet AGL
Weather: no significant weather observed at this time

METAR text: EYVI 230220Z 17006KT 9999 OVC008 M05/M07 Q1014 R19/2///95 NOSIG
Conditions at: EYVI (VILNIUS INTL , LT) observed 0220 UTC 23 January 2019
Temperature: -5.0°C (23°F)
Dewpoint: -7.0°C (19°F) [RH = 86%]
Pressure (altimeter): 29.94 inches Hg (1014.0 mb)
Winds: from the S (170 degrees) at 7 MPH (6 knots; 3.1 m/s)
Visibility: 6 or more miles (10+ km)
Ceiling: 800 feet AGL
Clouds: overcast cloud deck at 800 feet AGL
Weather: no significant weather observed at this time

METAR text: EYVI 230150Z 17006KT 9999 OVC009 M05/M07 Q1014 R19/2///95 NOSIG
Conditions at: EYVI (VILNIUS INTL , LT) observed 0150 UTC 23 January 2019
Temperature: -5.0°C (23°F)
Dewpoint: -7.0°C (19°F) [RH = 86%]
Pressure (altimeter): 29.94 inches Hg (1014.0 mb)
Winds: from the S (170 degrees) at 7 MPH (6 knots; 3.1 m/s)
Visibility: 6 or more miles (10+ km)
Ceiling: 900 feet AGL
Clouds: overcast cloud deck at 900 feet AGL
Weather: no significant weather observed at this time

METAR text: EYVI 230120Z 18007KT 9999 OVC010 M05/M07 Q1014 R19/2///95 NOSIG
Conditions at: EYVI (VILNIUS INTL , LT) observed 0120 UTC 23 January 2019
Temperature: -5.0°C (23°F)
Dewpoint: -7.0°C (19°F) [RH = 86%]
Pressure (altimeter): 29.94 inches Hg (1014.0 mb)
Winds: from the S (180 degrees) at 8 MPH (7 knots; 3.6 m/s)
Visibility: 6 or more miles (10+ km)
Ceiling: 1000 feet AGL
Clouds: overcast cloud deck at 1000 feet AGL
Weather: no significant weather observed at this time

METAR text: EYVI 230050Z 18005KT 9999 OVC011 M05/M07 Q1014 R19/2///95 NOSIG
Conditions at: EYVI (VILNIUS INTL , LT) observed 0050 UTC 23 January 2019
Temperature: -5.0°C (23°F)
Dewpoint: -7.0°C (19°F) [RH = 86%]
Pressure (altimeter): 29.94 inches Hg (1014.0 mb)
Winds: from the S (180 degrees) at 6 MPH (5 knots; 2.6 m/s)
Visibility: 6 or more miles (10+ km)
Ceiling: 1100 feet AGL
Clouds: overcast cloud deck at 1100 feet AGL
Weather: no significant weather observed at this time

METAR text: EYVI 230020Z 18006KT 9999 OVC013 M05/M07 Q1014 R19/2///95 NOSIG
Conditions at: EYVI (VILNIUS INTL , LT) observed 0020 UTC 23 January 2019
Temperature: -5.0°C (23°F)
Dewpoint: -7.0°C (19°F) [RH = 86%]
Pressure (altimeter): 29.94 inches Hg (1014.0 mb)
Winds: from the S (180 degrees) at 7 MPH (6 knots; 3.1 m/s)
Visibility: 6 or more miles (10+ km)
Ceiling: 1300 feet AGL
Clouds: overcast cloud deck at 1300 feet AGL
Weather: no significant weather observed at this time

METAR text: EYVI 222350Z 17007KT 9000 OVC014 M05/M07 Q1014 R19/2///95 NOSIG
Conditions at: EYVI (VILNIUS INTL , LT) observed 2350 UTC 22 January 2019
Temperature: -5.0°C (23°F)
Dewpoint: -7.0°C (19°F) [RH = 86%]
Pressure (altimeter): 29.94 inches Hg (1014.0 mb)
Winds: from the S (170 degrees) at 8 MPH (7 knots; 3.6 m/s)
Visibility: 6 miles ( 9 km)
Ceiling: 1400 feet AGL
Clouds: overcast cloud deck at 1400 feet AGL
Weather: no significant weather observed at this time

METAR text: EYVI 222320Z 17007KT 9000 OVC014 M05/M07 Q1014 R19/2///95 NOSIG
Conditions at: EYVI (VILNIUS INTL , LT) observed 2320 UTC 22 January 2019
Temperature: -5.0°C (23°F)
Dewpoint: -7.0°C (19°F) [RH = 86%]
Pressure (altimeter): 29.94 inches Hg (1014.0 mb)
Winds: from the S (170 degrees) at 8 MPH (7 knots; 3.6 m/s)
Visibility: 6 miles ( 9 km)
Ceiling: 1400 feet AGL
Clouds: overcast cloud deck at 1400 feet AGL
Weather: no significant weather observed at this time

METAR text: EYVI 222250Z 16005KT 8000 OVC015 M05/M07 Q1015 R19/2///95 NOSIG
Conditions at: EYVI (VILNIUS INTL , LT) observed 2250 UTC 22 January 2019
Temperature: -5.0°C (23°F)
Dewpoint: -7.0°C (19°F) [RH = 86%]
Pressure (altimeter): 29.97 inches Hg (1015.0 mb)
Winds: from the SSE (160 degrees) at 6 MPH (5 knots; 2.6 m/s)
Visibility: 5 miles ( 8 km)
Ceiling: 1500 feet AGL
Clouds: overcast cloud deck at 1500 feet AGL
Weather: no significant weather observed at this time

METAR text: EYVI 222220Z 17007KT 9000 OVC015 M05/M07 Q1015 R19/2///95 NOSIG
Conditions at: EYVI (VILNIUS INTL , LT) observed 2220 UTC 22 January 2019
Temperature: -5.0°C (23°F)
Dewpoint: -7.0°C (19°F) [RH = 86%]
Pressure (altimeter): 29.97 inches Hg (1015.0 mb)
Winds: from the S (170 degrees) at 8 MPH (7 knots; 3.6 m/s)
Visibility: 6 miles ( 9 km)
Ceiling: 1500 feet AGL
Clouds: overcast cloud deck at 1500 feet AGL
Weather: no significant weather observed at this time

METAR text: EYVI 222150Z 16006KT 9999 OVC015 M05/M07 Q1015 R19/2///95 NOSIG
Conditions at: EYVI (VILNIUS INTL , LT) observed 2150 UTC 22 January 2019
Temperature: -5.0°C (23°F)
Dewpoint: -7.0°C (19°F) [RH = 86%]
Pressure (altimeter): 29.97 inches Hg (1015.0 mb)
Winds: from the SSE (160 degrees) at 7 MPH (6 knots; 3.1 m/s)
Visibility: 6 or more miles (10+ km)
Ceiling: 1500 feet AGL
Clouds: overcast cloud deck at 1500 feet AGL
Weather: no significant weather observed at this time

METAR text: EYVI 222120Z 17006KT 8000 OVC014 M05/M07 Q1015 R19/2///95 NOSIG
Conditions at: EYVI (VILNIUS INTL , LT) observed 2120 UTC 22 January 2019
Temperature: -5.0°C (23°F)
Dewpoint: -7.0°C (19°F) [RH = 86%]
Pressure (altimeter): 29.97 inches Hg (1015.0 mb)
Winds: from the S (170 degrees) at 7 MPH (6 knots; 3.1 m/s)
Visibility: 5 miles ( 8 km)
Ceiling: 1400 feet AGL
Clouds: overcast cloud deck at 1400 feet AGL
Weather: no significant weather observed at this time

METAR text: EYVI 222050Z 19006KT 7000 OVC013 M05/M07 Q1015 R19/2///95 NOSIG
Conditions at: EYVI (VILNIUS INTL , LT) observed 2050 UTC 22 January 2019
Temperature: -5.0°C (23°F)
Dewpoint: -7.0°C (19°F) [RH = 86%]
Pressure (altimeter): 29.97 inches Hg (1015.0 mb)
Winds: from the S (190 degrees) at 7 MPH (6 knots; 3.1 m/s)
Visibility: 4 miles ( 7 km)
Ceiling: 1300 feet AGL
Clouds: overcast cloud deck at 1300 feet AGL
Weather: no significant weather observed at this time

METAR text: EYVI 222020Z 18005KT 9000 OVC012 M05/M07 Q1015 R19/2///95 NOSIG
Conditions at: EYVI (VILNIUS INTL , LT) observed 2020 UTC 22 January 2019
Temperature: -5.0°C (23°F)
Dewpoint: -7.0°C (19°F) [RH = 86%]
Pressure (altimeter): 29.97 inches Hg (1015.0 mb)
Winds: from the S (180 degrees) at 6 MPH (5 knots; 2.6 m/s)
Visibility: 6 miles ( 9 km)
Ceiling: 1200 feet AGL
Clouds: overcast cloud deck at 1200 feet AGL
Weather: no significant weather observed at this time

METAR text: EYVI 221950Z 20008KT 9000 OVC010 M05/M07 Q1015 R19/2///95 NOSIG
Conditions at: EYVI (VILNIUS INTL , LT) observed 1950 UTC 22 January 2019
Temperature: -5.0°C (23°F)
Dewpoint: -7.0°C (19°F) [RH = 86%]
Pressure (altimeter): 29.97 inches Hg (1015.0 mb)
Winds: from the SSW (200 degrees) at 9 MPH (8 knots; 4.1 m/s)
Visibility: 6 miles ( 9 km)
Ceiling: 1000 feet AGL
Clouds: overcast cloud deck at 1000 feet AGL
Weather: no significant weather observed at this time

METAR text: EYVI 221920Z 19006KT 6000 OVC008 M05/M06 Q1015 R19/2///95 NOSIG
Conditions at: EYVI (VILNIUS INTL , LT) observed 1920 UTC 22 January 2019
Temperature: -5.0°C (23°F)
Dewpoint: -6.0°C (21°F) [RH = 93%]
Pressure (altimeter): 29.97 inches Hg (1015.0 mb)
Winds: from the S (190 degrees) at 7 MPH (6 knots; 3.1 m/s)
Visibility: 4 miles ( 6 km)
Ceiling: 800 feet AGL
Clouds: overcast cloud deck at 800 feet AGL
Weather: no significant weather observed at this time

METAR text: EYVI 221850Z 20008KT 6000 BKN007 M05/M06 Q1015 R19/2///95 NOSIG
Conditions at: EYVI (VILNIUS INTL , LT) observed 1850 UTC 22 January 2019
Temperature: -5.0°C (23°F)
Dewpoint: -6.0°C (21°F) [RH = 93%]
Pressure (altimeter): 29.97 inches Hg (1015.0 mb)
Winds: from the SSW (200 degrees) at 9 MPH (8 knots; 4.1 m/s)
Visibility: 4 miles ( 6 km)
Ceiling: 700 feet AGL
Clouds: broken clouds at 700 feet AGL
Weather: no significant weather observed at this time

METAR text: EYVI 221820Z 19008KT 5000 BR OVC005 M04/M05 Q1015 R19/2///95 NOSIG
Conditions at: EYVI (VILNIUS INTL , LT) observed 1820 UTC 22 January 2019
Temperature: -4.0°C (25°F)
Dewpoint: -5.0°C (23°F) [RH = 93%]
Pressure (altimeter): 29.97 inches Hg (1015.0 mb)
Winds: from the S (190 degrees) at 9 MPH (8 knots; 4.1 m/s)
Visibility: 3 miles ( 5 km)
Ceiling: 500 feet AGL
Clouds: overcast cloud deck at 500 feet AGL
Weather: BR  (mist)

METAR text: EYVI 221750Z 19008KT 4100 BR SCT006 BKN019 M04/M05 Q1015 R19/2///95 NOSIG
Conditions at: EYVI (VILNIUS INTL , LT) observed 1750 UTC 22 January 2019
Temperature: -4.0°C (25°F)
Dewpoint: -5.0°C (23°F) [RH = 93%]
Pressure (altimeter): 29.97 inches Hg (1015.0 mb)
Winds: from the S (190 degrees) at 9 MPH (8 knots; 4.1 m/s)
Visibility: 2.55 miles (4.10 km)
Ceiling: 1900 feet AGL
Clouds: scattered clouds at 600 feet AGL
broken clouds at 1900 feet AGL
Weather: BR  (mist)

METAR text: EYVI 221720Z 17006KT 4800 BR BKN019 M04/M05 Q1015 R19/2///95 NOSIG
Conditions at: EYVI (VILNIUS INTL , LT) observed 1720 UTC 22 January 2019
Temperature: -4.0°C (25°F)
Dewpoint: -5.0°C (23°F) [RH = 93%]
Pressure (altimeter): 29.97 inches Hg (1015.0 mb)
Winds: from the S (170 degrees) at 7 MPH (6 knots; 3.1 m/s)
Visibility: 2.98 miles (4.80 km)
Ceiling: 1900 feet AGL
Clouds: broken clouds at 1900 feet AGL
Weather: BR  (mist)

METAR text: EYVI 221650Z 18005KT 5000 BR FEW007 BKN020 M04/M05 Q1015 R19/2///95 BECMG OVC005
Conditions at: EYVI (VILNIUS INTL , LT) observed 1650 UTC 22 January 2019
Temperature: -4.0°C (25°F)
Dewpoint: -5.0°C (23°F) [RH = 93%]
Pressure (altimeter): 29.97 inches Hg (1015.0 mb)
Winds: from the S (180 degrees) at 6 MPH (5 knots; 2.6 m/s)
Visibility: 3 miles ( 5 km)
Ceiling: 2000 feet AGL
Clouds: few clouds at 700 feet AGL
broken clouds at 2000 feet AGL
Weather: BR  (mist)

METAR text: EYVI 221620Z 16004KT 5000 BR OVC012 M04/M05 Q1015 R19/2///95 BECMG OVC005
Conditions at: EYVI (VILNIUS INTL , LT) observed 1620 UTC 22 January 2019
Temperature: -4.0°C (25°F)
Dewpoint: -5.0°C (23°F) [RH = 93%]
Pressure (altimeter): 29.97 inches Hg (1015.0 mb)
Winds: from the SSE (160 degrees) at 5 MPH (4 knots; 2.1 m/s)
Visibility: 3 miles ( 5 km)
Ceiling: 1200 feet AGL
Clouds: overcast cloud deck at 1200 feet AGL
Weather: BR  (mist)

METAR text: EYVI 221600Z 16004KT 5000 BR OVC007 M04/M05 Q1015 R19/2///95 BECMG OVC005
Conditions at: EYVI (VILNIUS INTL , LT) observed 1600 UTC 22 January 2019
Temperature: -4.0°C (25°F)
Dewpoint: -5.0°C (23°F) [RH = 93%]
Pressure (altimeter): 29.97 inches Hg (1015.0 mb)
Winds: from the SSE (160 degrees) at 5 MPH (4 knots; 2.1 m/s)
Visibility: 3 miles ( 5 km)
Ceiling: 700 feet AGL
Clouds: overcast cloud deck at 700 feet AGL
Weather: BR  (mist)

METAR text: EYVI 221550Z 15004KT 6000 OVC007 M04/M05 Q1015 R19/2///95 BECMG OVC005
Conditions at: EYVI (VILNIUS INTL , LT) observed 1550 UTC 22 January 2019
Temperature: -4.0°C (25°F)
Dewpoint: -5.0°C (23°F) [RH = 93%]
Pressure (altimeter): 29.97 inches Hg (1015.0 mb)
Winds: from the SSE (150 degrees) at 5 MPH (4 knots; 2.1 m/s)
Visibility: 4 miles ( 6 km)
Ceiling: 700 feet AGL
Clouds: overcast cloud deck at 700 feet AGL
Weather: no significant weather observed at this time

METAR text: EYVI 221520Z 13003KT 7000 OVC013 M04/M05 Q1015 R19/2///95 NOSIG
Conditions at: EYVI (VILNIUS INTL , LT) observed 1520 UTC 22 January 2019
Temperature: -4.0°C (25°F)
Dewpoint: -5.0°C (23°F) [RH = 93%]
Pressure (altimeter): 29.97 inches Hg (1015.0 mb)
Winds: from the SE (130 degrees) at 3 MPH (3 knots; 1.5 m/s)
Visibility: 4 miles ( 7 km)
Ceiling: 1300 feet AGL
Clouds: overcast cloud deck at 1300 feet AGL
Weather: no significant weather observed at this time

METAR text: EYVI 221450Z 12003KT 7000 OVC020 M04/M05 Q1016 R19/2///95 NOSIG
Conditions at: EYVI (VILNIUS INTL , LT) observed 1450 UTC 22 January 2019
Temperature: -4.0°C (25°F)
Dewpoint: -5.0°C (23°F) [RH = 93%]
Pressure (altimeter): 30.00 inches Hg (1016.0 mb)
Winds: from the ESE (120 degrees) at 3 MPH (3 knots; 1.5 m/s)
Visibility: 4 miles ( 7 km)
Ceiling: 2000 feet AGL
Clouds: overcast cloud deck at 2000 feet AGL
Weather: no significant weather observed at this time

METAR text: EYVI 221420Z 12003KT 090V150 7000 OVC019 M04/M05 Q1016 R19/2///95 NOSIG
Conditions at: EYVI (VILNIUS INTL , LT) observed 1420 UTC 22 January 2019
Temperature: -4.0°C (25°F)
Dewpoint: -5.0°C (23°F) [RH = 93%]
Pressure (altimeter): 30.00 inches Hg (1016.0 mb)
Winds: from the ESE (120 degrees) at 3 MPH (3 knots; 1.5 m/s)
Visibility: 4 miles ( 7 km)
Ceiling: 1900 feet AGL
Clouds: overcast cloud deck at 1900 feet AGL
Weather: no significant weather observed at this time

METAR text: EYVI 221350Z 13003KT 7000 OVC019 M04/M05 Q1016 R19/2///95 NOSIG
Conditions at: EYVI (VILNIUS INTL , LT) observed 1350 UTC 22 January 2019
Temperature: -4.0°C (25°F)
Dewpoint: -5.0°C (23°F) [RH = 93%]
Pressure (altimeter): 30.00 inches Hg (1016.0 mb)
Winds: from the SE (130 degrees) at 3 MPH (3 knots; 1.5 m/s)
Visibility: 4 miles ( 7 km)
Ceiling: 1900 feet AGL
Clouds: overcast cloud deck at 1900 feet AGL
Weather: no significant weather observed at this time

METAR text: EYVI 221320Z 12002KT 7000 OVC021 M04/M05 Q1016 R19/2///95 NOSIG
Conditions at: EYVI (VILNIUS INTL , LT) observed 1320 UTC 22 January 2019
Temperature: -4.0°C (25°F)
Dewpoint: -5.0°C (23°F) [RH = 93%]
Pressure (altimeter): 30.00 inches Hg (1016.0 mb)
Winds: from the ESE (120 degrees) at 2 MPH (2 knots; 1.0 m/s)
Visibility: 4 miles ( 7 km)
Ceiling: 2100 feet AGL
Clouds: overcast cloud deck at 2100 feet AGL
Weather: no significant weather observed at this time

METAR text: EYVI 221250Z VRB02KT 6000 OVC013 M04/M04 Q1016 R19/2///95 NOSIG
Conditions at: EYVI (VILNIUS INTL , LT) observed 1250 UTC 22 January 2019
Temperature: -4.0°C (25°F)
Dewpoint: -4.0°C (25°F) [RH = 100%]
Pressure (altimeter): 30.00 inches Hg (1016.0 mb)
Winds: variable direction winds at 2 MPH (2 knots; 1.0 m/s)
Visibility: 4 miles ( 6 km)
Ceiling: 1300 feet AGL
Clouds: overcast cloud deck at 1300 feet AGL
Weather: no significant weather observed at this time

METAR text: EYVI 221220Z VRB02KT 5000 BR OVC004 M04/M04 Q1016 R19/2///95 NOSIG
Conditions at: EYVI (VILNIUS INTL , LT) observed 1220 UTC 22 January 2019
Temperature: -4.0°C (25°F)
Dewpoint: -4.0°C (25°F) [RH = 100%]
Pressure (altimeter): 30.00 inches Hg (1016.0 mb)
Winds: variable direction winds at 2 MPH (2 knots; 1.0 m/s)
Visibility: 3 miles ( 5 km)
Ceiling: 400 feet AGL
Clouds: overcast cloud deck at 400 feet AGL
Weather: BR  (mist)

METAR text: EYVI 221150Z 17003KT 3800 BR OVC003 M04/M04 Q1016 R19/2///95 NOSIG
Conditions at: EYVI (VILNIUS INTL , LT) observed 1150 UTC 22 January 2019
Temperature: -4.0°C (25°F)
Dewpoint: -4.0°C (25°F) [RH = 100%]
Pressure (altimeter): 30.00 inches Hg (1016.0 mb)
Winds: from the S (170 degrees) at 3 MPH (3 knots; 1.5 m/s)
Visibility: 2.36 miles (3.80 km)
Ceiling: 300 feet AGL
Clouds: overcast cloud deck at 300 feet AGL
Weather: BR  (mist)

METAR text: EYVI 221120Z 19005KT 3400 BR OVC002 M04/M04 Q1016 R19/2///95 TEMPO 0800 FZFG
Conditions at: EYVI (VILNIUS INTL , LT) observed 1120 UTC 22 January 2019
Temperature: -4.0°C (25°F)
Dewpoint: -4.0°C (25°F) [RH = 100%]
Pressure (altimeter): 30.00 inches Hg (1016.0 mb)
Winds: from the S (190 degrees) at 6 MPH (5 knots; 2.6 m/s)
Visibility: 2.11 miles (3.40 km)
Ceiling: 200 feet AGL
Clouds: overcast cloud deck at 200 feet AGL
Weather: BR  (mist)

METAR text: EYVI 221050Z 17005KT 2000 -SN BR OVC002 M04/M04 Q1016 R19/2///95 TEMPO 0800 FZFG
Conditions at: EYVI (VILNIUS INTL , LT) observed 1050 UTC 22 January 2019
Temperature: -4.0°C (25°F)
Dewpoint: -4.0°C (25°F) [RH = 100%]
Pressure (altimeter): 30.00 inches Hg (1016.0 mb)
Winds: from the S (170 degrees) at 6 MPH (5 knots; 2.6 m/s)
Visibility: 1.24 miles (2.00 km)
Ceiling: 200 feet AGL
Clouds: overcast cloud deck at 200 feet AGL
Weather: -SN BR  (light snow, mist)

METAR text: EYVI 221020Z 17005KT 2100 BR OVC002 M04/M04 Q1017 R19/2///95 TEMPO 0800 FZFG
Conditions at: EYVI (VILNIUS INTL , LT) observed 1020 UTC 22 January 2019
Temperature: -4.0°C (25°F)
Dewpoint: -4.0°C (25°F) [RH = 100%]
Pressure (altimeter): 30.03 inches Hg (1017.0 mb)
Winds: from the S (170 degrees) at 6 MPH (5 knots; 2.6 m/s)
Visibility: 1.30 miles (2.09 km)
Ceiling: 200 feet AGL
Clouds: overcast cloud deck at 200 feet AGL
Weather: BR  (mist)

METAR text: EYVI 220953Z 17004KT 1100 R19/1400D BR OVC002 M04/M05 Q1017 R19/2///95 TEMPO 0600 FZFG
Conditions at: EYVI (VILNIUS INTL , LT) observed 0953 UTC 22 January 2019
Temperature: -4.0°C (25°F)
Dewpoint: -5.0°C (23°F) [RH = 93%]
Pressure (altimeter): 30.03 inches Hg (1017.0 mb)
Winds: from the S (170 degrees) at 5 MPH (4 knots; 2.1 m/s)
Visibility: 0.68 miles (1.09 km)
Ceiling: 200 feet AGL
Clouds: overcast cloud deck at 200 feet AGL
Weather: BR  (mist)

METAR text: EYVI 220950Z 17004KT 1800 R19/1100VP2000D BR OVC002 M04/M05 Q1017 R19/2///95 TEMPO 0600 FZFG
Conditions at: EYVI (VILNIUS INTL , LT) observed 0950 UTC 22 January 2019
Temperature: -4.0°C (25°F)
Dewpoint: -5.0°C (23°F) [RH = 93%]
Pressure (altimeter): 30.03 inches Hg (1017.0 mb)
Winds: from the S (170 degrees) at 5 MPH (4 knots; 2.1 m/s)
Visibility: 1.12 miles (1.80 km)
Ceiling: 200 feet AGL
Clouds: overcast cloud deck at 200 feet AGL
Weather: BR  (mist)

METAR text: EYVI 220928Z 16004KT 3000 -SN BR OVC002 M04/M05 Q1017 R19/2///95 TEMPO 0600 FZFG
Conditions at: EYVI (VILNIUS INTL , LT) observed 0928 UTC 22 January 2019
Temperature: -4.0°C (25°F)
Dewpoint: -5.0°C (23°F) [RH = 93%]
Pressure (altimeter): 30.03 inches Hg (1017.0 mb)
Winds: from the SSE (160 degrees) at 5 MPH (4 knots; 2.1 m/s)
Visibility: 1.86 miles (2.99 km)
Ceiling: 200 feet AGL
Clouds: overcast cloud deck at 200 feet AGL
Weather: -SN BR  (light snow, mist)

METAR text: EYVI 220922Z 17004KT 1200 R19/1500D -SN OVC002 M04/M05 Q1017 R19/5/0194 TEMPO 0600 FZFG
Conditions at: EYVI (VILNIUS INTL , LT) observed 0922 UTC 22 January 2019
Temperature: -4.0°C (25°F)
Dewpoint: -5.0°C (23°F) [RH = 93%]
Pressure (altimeter): 30.03 inches Hg (1017.0 mb)
Winds: from the S (170 degrees) at 5 MPH (4 knots; 2.1 m/s)
Visibility: 0.75 miles (1.21 km)
Ceiling: 200 feet AGL
Clouds: overcast cloud deck at 200 feet AGL
Weather: -SN  (light snow)

METAR text: EYVI 220900Z 18005KT 2900 BR OVC003 M04/M05 Q1017 R19/5/0194 TEMPO 1500 BR
Conditions at: EYVI (VILNIUS INTL , LT) observed 0900 UTC 22 January 2019
Temperature: -4.0°C (25°F)
Dewpoint: -5.0°C (23°F) [RH = 93%]
Pressure (altimeter): 30.03 inches Hg (1017.0 mb)
Winds: from the S (180 degrees) at 6 MPH (5 knots; 2.6 m/s)
Visibility: 1.80 miles (2.90 km)
Ceiling: 300 feet AGL
Clouds: overcast cloud deck at 300 feet AGL
Weather: BR  (mist)

METAR text: EYVI 220850Z 17004KT 3400 BR OVC003 M04/M05 Q1017 R19/5/0194 TEMPO 1500 BR
Conditions at: EYVI (VILNIUS INTL , LT) observed 0850 UTC 22 January 2019
Temperature: -4.0°C (25°F)
Dewpoint: -5.0°C (23°F) [RH = 93%]
Pressure (altimeter): 30.03 inches Hg (1017.0 mb)
Winds: from the S (170 degrees) at 5 MPH (4 knots; 2.1 m/s)
Visibility: 2.11 miles (3.40 km)
Ceiling: 300 feet AGL
Clouds: overcast cloud deck at 300 feet AGL
Weather: BR  (mist)

METAR text: EYVI 220820Z 14004KT 4800 BR BKN004 OVC020 M05/M05 Q1017 R19/5/0194 TEMPO 3000 BR BKN002
Conditions at: EYVI (VILNIUS INTL , LT) observed 0820 UTC 22 January 2019
Temperature: -5.0°C (23°F)
Dewpoint: -5.0°C (23°F) [RH = 100%]
Pressure (altimeter): 30.03 inches Hg (1017.0 mb)
Winds: from the SE (140 degrees) at 5 MPH (4 knots; 2.1 m/s)
Visibility: 2.98 miles (4.80 km)
Ceiling: 400 feet AGL
Clouds: broken clouds at 400 feet AGL
overcast cloud deck at 2000 feet AGL
Weather: BR  (mist)

METAR text: EYVI 220750Z 15005KT 3600 -SN BR OVC018 M05/M06 Q1017 R19/5/0194 TEMPO 3000 BR BKN003
Conditions at: EYVI (VILNIUS INTL , LT) observed 0750 UTC 22 January 2019
Temperature: -5.0°C (23°F)
Dewpoint: -6.0°C (21°F) [RH = 93%]
Pressure (altimeter): 30.03 inches Hg (1017.0 mb)
Winds: from the SSE (150 degrees) at 6 MPH (5 knots; 2.6 m/s)
Visibility: 2.24 miles (3.60 km)
Ceiling: 1800 feet AGL
Clouds: overcast cloud deck at 1800 feet AGL
Weather: -SN BR  (light snow, mist)

Forecast for: EYVI (VILNIUS INTL , LT)
Text: TAF EYVI 231705Z 2318/2418 VRB05KT 5000 BR NSC
Forecast period: 1800 to 2200 UTC 23 January 2019
Forecast type: FROM: standard forecast or significant change
Winds: variable direction winds at 6 MPH (5 knots; 2.6 m/s)
Visibility: 3 miles (5 km)
Ceiling: unknown
Clouds: missing
Weather: BR  (mist)
Text: PROB40
Forecast period: 1800 to 2200 UTC 23 January 2019
Forecast type: TEMPORARY: The following changes expected for less than half the time period
Visibility: missing
Ceiling: 500 feet AGL
Clouds: broken clouds at 500 feet AGL
Weather: no significant weather forecast for this period
Text: TEMPO 2318/2322 BKN005
Forecast period: 2200 UTC 23 January 2019 to 0700 UTC 24 January 2019
Forecast type: BECOMING: Conditions expected to become as follows by 0000 UTC 24 January 2019
Winds: variable direction winds at 6 MPH (5 knots; 2.6 m/s)
Visibility: 3 miles (5 km)
Ceiling: 300 feet AGL
Clouds: broken clouds at 300 feet AGL
Weather: BR  (mist)
Text: BECMG 2322/2324 BKN003
Forecast period: 0700 to 1500 UTC 24 January 2019
Forecast type: BECOMING: Conditions expected to become as follows by 0800 UTC 24 January 2019
Winds: variable direction winds at 6 MPH (5 knots; 2.6 m/s)
Visibility: 5 miles (8 km)
Ceiling: 300 feet AGL
Clouds: broken clouds at 300 feet AGL
Weather: BR  (mist)
Text: BECMG 2407/2408 8000
Forecast period: 1500 to 1800 UTC 24 January 2019
Forecast type: BECOMING: Conditions expected to become as follows by 1600 UTC 24 January 2019
Winds: variable direction winds at 6 MPH (5 knots; 2.6 m/s)
Visibility: 5 miles (8 km)
Ceiling: unknown
Clouds: missing
Weather: BR  (mist)